コペンハーゲン の空港の天気 - METARとTAF

コペンハーゲン国際空港 ( EKCH / CPH ) - デンマーク コペンハーゲン
飛行場実況気象(Metar)
観測時間06/25 10:20 CEST (06/25 08:20 UTC)
風向・風速南西 6m/s
視程10km以上
天気現象
少しの雲 雲底高度 370m
全天の4割程度の雲 雲底高度 2130m
全天の8割程度の雲 雲底高度 3660m
気温18℃
湿度77%
気圧1002hPa
METAREKCH 250820Z 22012KT 9999 FEW012 SCT070 BKN120 18/14 Q1002 TEMPO SHRA SCT030CB
過去の天気等 Google飛行場航空写真 Wunderground天気予報

過去48時間のMETAR

飛行場予報(TAF)
発表時間: 6/25 09:05 CEST (6/25 07:05 UTC)
予報対象時間: 25日8時 CEST ~ 26日8時 CEST
風向・風速南西 6m/s
視程10km以上
全天の8割程度の雲 雲底高度 910m
25日10時 CEST ~ 25日17時 CEST に一時的に
風向・風速西南西 9m/s 瞬間風速 15m/s
天気現象しゅう雨
全天の4割程度の積乱雲 雲底高度 910m
25日17時 CEST ~ 25日20時 CEST に一時的に
風向・風速西南西 8m/s 瞬間風速 13m/s
26日2時 CEST ~ 26日8時 CEST に一時的に
風向・風速西南西 9m/s 瞬間風速 14m/s
天気現象しゅう雨
全天の4割程度の積乱雲 雲底高度 610m
TAF AMD EKCH 250705Z 2506/2606 22012KT 9999 BKN030
TEMPO 2508/2515 25018G30KT SHRA SCT030CB
TEMPO 2515/2518 25015G25KT
TEMPO 2600/2606 25018G28KT SHRA SCT020CB